Time;durP1;ratioP1;P1;durP2;ratioP2;P2;SDS_P1;SDS_P2;PMS_P1;PMS_P2;Temp;Humidity;BMP_temperature;BMP_pressure;BME280_temperature;BME280_humidity;BME280_pressure;Samples;Min_cycle;Max_cycle;Signal;HPM_P1;HPM_P2
2022/05/25 00:00:58;;;;;;;2.13;1.60;;;13.80;99.90;;;;;;5106833;28;20180;-62
2022/05/25 00:03:24;;;;;;;3.97;2.00;;;13.70;99.90;;;;;;5101950;28;20431;-61
2022/05/25 00:05:50;;;;;;;1.93;1.43;;;13.70;99.90;;;;;;5113136;28;20811;-63
2022/05/25 00:08:16;;;;;;;3.37;1.90;;;13.70;99.90;;;;;;5109876;28;20782;-61
2022/05/25 00:10:42;;;;;;;4.70;2.20;;;13.60;99.90;;;;;;5110047;28;20441;-62
2022/05/25 00:13:07;;;;;;;2.07;1.73;;;13.60;99.90;;;;;;5115098;28;20458;-61
2022/05/25 00:15:35;;;;;;;1.70;1.60;;;13.50;99.90;;;;;;5097421;28;20427;-62
2022/05/25 00:18:01;;;;;;;1.70;1.60;;;13.40;99.90;;;;;;5107650;28;20175;-61
2022/05/25 00:20:26;;;;;;;2.90;2.07;;;13.40;99.90;;;;;;5111862;28;20431;-61
2022/05/25 00:22:55;;;;;;;6.30;1.70;;;13.40;99.90;;;;;;5113959;28;20442;-61
2022/05/25 00:25:30;;;;;;;1.93;1.50;;;13.40;99.90;;;;;;5105446;28;20189;-61
2022/05/25 00:27:59;;;;;;;3.03;1.67;;;13.40;99.90;;;;;;5098823;28;20414;-62
2022/05/25 00:30:25;;;;;;;3.40;1.60;;;13.30;99.90;;;;;;5107158;28;20419;-61
2022/05/25 00:32:51;;;;;;;2.30;1.90;;;13.30;99.90;;;;;;5106229;28;20430;-61
2022/05/25 00:35:19;;;;;;;1.80;1.70;;;13.30;99.90;;;;;;5104636;28;20458;-61
2022/05/25 00:37:45;;;;;;;1.93;1.80;;;13.30;99.90;;;;;;5101985;28;20440;-61
2022/05/25 00:40:15;;;;;;;1.60;1.50;;;13.30;99.90;;;;;;5106459;28;20415;-63
2022/05/25 00:42:41;;;;;;;7.50;1.60;;;13.20;99.90;;;;;;5100058;28;21155;-61
2022/05/25 00:45:07;;;;;;;2.10;2.00;;;13.20;99.90;;;;;;5105285;28;20442;-61
2022/05/25 00:47:36;;;;;;;6.90;1.90;;;13.20;99.90;;;;;;5108040;28;20185;-61
2022/05/25 00:50:03;;;;;;;1.70;1.60;;;13.10;99.90;;;;;;5113627;28;20437;-62
2022/05/25 00:52:29;;;;;;;1.87;1.77;;;13.10;99.90;;;;;;5106335;28;21000;-61
2022/05/25 00:55:03;;;;;;;2.23;1.67;;;13.10;99.90;;;;;;5096914;28;20462;-61
2022/05/25 00:57:39;;;;;;;3.83;1.80;;;13.10;99.90;;;;;;5114424;27;20200;-62
2022/05/25 01:00:12;;;;;;;2.17;1.73;;;13.10;99.90;;;;;;5103175;28;20475;-62
2022/05/25 01:02:44;;;;;;;1.50;1.40;;;13.00;99.90;;;;;;5108180;27;20435;-61
2022/05/25 01:05:12;;;;;;;6.10;1.67;;;13.00;99.90;;;;;;5104828;27;20430;-61
2022/05/25 01:07:48;;;;;;;1.83;1.60;;;13.00;99.90;;;;;;5098602;28;20523;-61
2022/05/25 01:10:32;;;;;;;1.53;1.30;;;13.00;99.90;;;;;;5082012;28;20988;-62
2022/05/25 01:13:16;;;;;;;5.87;1.33;;;12.90;99.90;;;;;;5109887;27;20426;-61
2022/05/25 01:16:00;;;;;;;2.90;1.57;;;12.90;99.90;;;;;;5095360;28;20579;-61
2022/05/25 01:18:41;;;;;;;2.30;1.70;;;12.90;99.90;;;;;;5109649;28;20567;-61
2022/05/25 01:21:20;;;;;;;3.23;1.70;;;12.80;99.90;;;;;;5108948;28;20526;-62
2022/05/25 01:24:03;;;;;;;1.50;1.40;;;12.80;99.90;;;;;;5108782;28;20447;-61
2022/05/25 01:26:41;;;;;;;1.97;1.40;;;12.90;99.90;;;;;;5103876;27;20417;-61
2022/05/25 01:29:28;;;;;;;1.70;1.60;;;12.90;99.90;;;;;;5109956;28;20423;-60
2022/05/25 01:32:13;;;;;;;2.00;1.70;;;12.90;99.90;;;;;;5105443;28;20522;-62
2022/05/25 01:34:51;;;;;;;1.60;1.50;;;12.90;99.90;;;;;;5107667;28;20462;-61
2022/05/25 01:37:34;;;;;;;1.63;1.50;;;12.90;99.90;;;;;;5101049;27;21131;-60
2022/05/25 01:40:32;;;;;;;1.80;1.70;;;12.90;99.90;;;;;;5100934;27;20991;-61
2022/05/25 01:43:14;;;;;;;1.67;1.57;;;12.90;99.90;;;;;;5109364;27;20433;-62
2022/05/25 01:45:45;;;;;;;1.50;1.43;;;12.80;99.90;;;;;;5100041;28;20423;-60
2022/05/25 01:48:14;;;;;;;4.70;1.80;;;12.80;99.90;;;;;;5110988;28;20858;-62
2022/05/25 01:50:55;;;;;;;1.70;1.60;;;12.80;99.90;;;;;;5088058;28;20424;-61
2022/05/25 01:53:25;;;;;;;2.43;1.73;;;12.70;99.90;;;;;;5109597;27;20458;-62
2022/05/25 01:55:56;;;;;;;3.30;1.70;;;12.70;99.90;;;;;;5098926;28;20437;-62
2022/05/25 01:58:24;;;;;;;3.30;1.80;;;12.70;99.90;;;;;;5102199;27;20434;-61
2022/05/25 02:00:55;;;;;;;5.70;1.83;;;12.70;99.90;;;;;;5101597;27;20518;-62
2022/05/25 02:06:33;;;;;;;2.03;1.50;;;12.70;99.90;;;;;;5105935;28;20425;-62
2022/05/25 02:09:26;;;;;;;2.27;1.77;;;12.60;99.90;;;;;;5089567;28;20425;-62
2022/05/25 02:12:10;;;;;;;2.60;1.80;;;12.60;99.90;;;;;;5103668;28;20433;-62
2022/05/25 02:14:53;;;;;;;1.80;1.70;;;12.60;99.90;;;;;;5105086;28;20567;-62
2022/05/25 02:17:38;;;;;;;3.40;2.03;;;12.60;99.90;;;;;;5102189;28;20779;-62
2022/05/25 02:20:17;;;;;;;2.23;2.00;;;12.60;99.90;;;;;;5091128;28;20400;-62
2022/05/25 02:22:48;;;;;;;2.47;1.87;;;12.60;99.90;;;;;;5107694;27;20793;-61
2022/05/25 02:25:41;;;;;;;3.23;1.80;;;12.60;99.90;;;;;;5105726;27;20439;-62
2022/05/25 02:28:15;;;;;;;5.20;1.60;;;12.60;99.90;;;;;;5090309;28;20476;-62
2022/05/25 02:30:46;;;;;;;2.10;1.43;;;12.50;99.90;;;;;;5106867;28;20806;-62
2022/05/25 02:33:21;;;;;;;1.90;1.80;;;12.50;99.90;;;;;;5110025;27;20427;-61
2022/05/25 02:35:48;;;;;;;3.30;1.77;;;12.50;99.90;;;;;;5094064;28;20517;-62
2022/05/25 02:38:15;;;;;;;1.70;1.60;;;12.50;99.90;;;;;;5109639;28;20404;-62
2022/05/25 02:40:41;;;;;;;1.77;1.67;;;12.50;99.90;;;;;;5091155;28;20407;-62
2022/05/25 02:43:08;;;;;;;3.73;1.90;;;12.40;99.90;;;;;;5101661;28;20432;-62
2022/05/25 02:45:35;;;;;;;3.00;1.77;;;12.40;99.90;;;;;;5101490;28;20616;-62
2022/05/25 02:48:02;;;;;;;3.17;1.70;;;12.40;99.90;;;;;;5107846;27;20423;-62
2022/05/25 02:50:27;;;;;;;1.83;1.73;;;12.40;99.90;;;;;;5104242;27;20434;-62
2022/05/25 02:52:53;;;;;;;1.60;1.50;;;12.40;99.90;;;;;;5102358;28;20427;-61
2022/05/25 02:55:19;;;;;;;1.80;1.40;;;12.40;99.90;;;;;;5101864;28;20279;-62
2022/05/25 02:57:45;;;;;;;3.33;2.20;;;12.40;99.90;;;;;;5100436;27;20181;-62
2022/05/25 03:00:11;;;;;;;3.23;3.03;;;12.40;99.90;;;;;;5103861;28;20682;-61
2022/05/25 03:02:37;;;;;;;4.30;3.20;;;12.40;99.90;;;;;;5097999;28;20173;-62
2022/05/25 03:05:05;;;;;;;5.07;3.60;;;12.40;99.90;;;;;;5099369;28;20500;-61
2022/05/25 03:07:31;;;;;;;4.23;2.10;;;12.40;99.90;;;;;;5107567;28;20162;-61
2022/05/25 03:09:56;;;;;;;2.67;1.67;;;12.30;99.90;;;;;;5101342;28;20434;-62
2022/05/25 03:12:22;;;;;;;1.80;1.70;;;12.30;99.90;;;;;;5103663;28;20251;-62
2022/05/25 03:14:48;;;;;;;5.07;1.80;;;12.30;99.90;;;;;;5088071;28;20204;-62
2022/05/25 03:17:14;;;;;;;1.77;1.60;;;12.30;99.90;;;;;;5108630;28;20172;-61
2022/05/25 03:19:50;;;;;;;1.83;1.57;;;12.20;99.90;;;;;;5107811;28;20423;-62
2022/05/25 03:22:16;;;;;;;2.37;2.10;;;12.20;99.90;;;;;;5090864;28;20458;-62
2022/05/25 03:24:42;;;;;;;6.37;1.90;;;12.20;99.90;;;;;;5107247;28;20483;-60
2022/05/25 03:27:07;;;;;;;4.60;2.10;;;12.10;99.90;;;;;;5107034;27;20515;-61
2022/05/25 03:29:33;;;;;;;3.77;1.50;;;12.10;99.90;;;;;;5109768;28;20176;-61
2022/05/25 03:31:59;;;;;;;6.83;2.00;;;12.10;99.90;;;;;;5109283;28;20211;-62
2022/05/25 03:34:26;;;;;;;1.67;1.57;;;12.10;99.90;;;;;;5108151;28;20485;-62
2022/05/25 03:36:54;;;;;;;2.60;1.90;;;12.20;99.90;;;;;;5100531;28;20437;-61
2022/05/25 03:39:24;;;;;;;2.23;1.50;;;12.20;99.90;;;;;;5108390;28;20786;-61
2022/05/25 03:41:59;;;;;;;2.03;1.93;;;12.20;99.90;;;;;;5103895;28;20496;-62
2022/05/25 03:44:24;;;;;;;1.70;1.60;;;12.20;99.90;;;;;;5101158;28;20449;-61
2022/05/25 03:46:51;;;;;;;2.53;1.60;;;12.20;99.90;;;;;;5106526;28;20939;-62
2022/05/25 03:49:17;;;;;;;5.60;1.67;;;12.20;99.90;;;;;;5109407;28;20229;-62
2022/05/25 03:51:43;;;;;;;2.50;1.50;;;12.20;99.90;;;;;;5088004;28;20826;-61
2022/05/25 03:54:09;;;;;;;1.90;1.80;;;12.20;99.90;;;;;;5101693;28;20469;-55
2022/05/25 03:56:35;;;;;;;2.70;2.10;;;12.20;99.90;;;;;;5103448;28;20430;-55
2022/05/25 03:59:01;;;;;;;2.60;1.50;;;12.20;99.90;;;;;;5103667;28;20556;-56
2022/05/25 04:01:27;;;;;;;1.70;1.60;;;12.20;99.90;;;;;;5092257;28;20205;-57
2022/05/25 04:03:52;;;;;;;1.80;1.70;;;12.20;99.90;;;;;;5097113;28;20197;-57
2022/05/25 04:06:18;;;;;;;2.50;1.50;;;12.10;99.90;;;;;;5085216;28;20177;-58
2022/05/25 04:08:44;;;;;;;3.63;1.63;;;12.10;99.90;;;;;;5103680;28;20245;-55
2022/05/25 04:11:11;;;;;;;1.83;1.70;;;12.10;99.90;;;;;;5083772;28;20177;-60
2022/05/25 04:13:37;;;;;;;1.40;1.30;;;12.10;99.90;;;;;;5098012;28;20209;-61
2022/05/25 04:16:03;;;;;;;1.97;1.80;;;12.10;99.90;;;;;;5096165;28;20427;-61
2022/05/25 04:18:28;;;;;;;2.57;1.80;;;12.10;99.90;;;;;;5098407;28;20427;-61
2022/05/25 04:20:54;;;;;;;4.00;2.17;;;12.10;99.90;;;;;;5105299;28;20438;-61
2022/05/25 04:23:20;;;;;;;1.90;1.80;;;12.10;99.90;;;;;;5101585;28;20817;-62
2022/05/25 04:25:46;;;;;;;2.13;2.00;;;12.10;99.90;;;;;;5093382;28;20181;-62
2022/05/25 04:28:12;;;;;;;1.90;1.80;;;12.10;99.90;;;;;;5098654;28;20298;-61
2022/05/25 04:30:38;;;;;;;7.40;2.00;;;12.00;99.90;;;;;;5105663;27;20329;-62
2022/05/25 04:33:03;;;;;;;2.53;2.00;;;12.00;99.90;;;;;;5087747;28;20422;-61
2022/05/25 04:35:29;;;;;;;2.50;2.00;;;12.10;99.90;;;;;;5101538;27;20947;-62
2022/05/25 04:37:55;;;;;;;2.50;2.07;;;12.10;99.90;;;;;;5104809;28;20181;-61
2022/05/25 04:40:26;;;;;;;3.03;2.07;;;12.10;99.90;;;;;;5115563;27;20580;-61
2022/05/25 04:42:53;;;;;;;4.53;1.97;;;12.20;99.90;;;;;;5107568;27;20683;-61
2022/05/25 04:45:20;;;;;;;2.30;2.10;;;12.20;99.90;;;;;;5097589;27;20439;-61
2022/05/25 04:47:47;;;;;;;6.17;1.97;;;12.20;99.90;;;;;;5101270;28;20412;-61
2022/05/25 04:50:15;;;;;;;7.40;2.07;;;12.20;99.90;;;;;;5100709;28;20514;-60
2022/05/25 04:52:41;;;;;;;10.93;2.07;;;12.10;99.90;;;;;;5096537;27;20422;-62
2022/05/25 04:55:09;;;;;;;2.23;2.03;;;12.10;99.90;;;;;;5093739;27;20468;-61
2022/05/25 04:57:35;;;;;;;6.80;2.53;;;12.10;99.90;;;;;;5100958;28;20180;-61
2022/05/25 05:00:06;;;;;;;3.63;1.93;;;12.10;99.90;;;;;;5099628;27;22620;-57
2022/05/25 05:02:31;;;;;;;2.13;1.80;;;12.20;99.90;;;;;;5099147;28;20431;-57
2022/05/25 05:04:57;;;;;;;2.70;1.90;;;12.30;99.90;;;;;;5098408;28;20451;-56
2022/05/25 05:07:34;;;;;;;2.97;1.90;;;12.30;99.90;;;;;;5102702;27;20242;-62
2022/05/25 05:10:01;;;;;;;3.77;2.30;;;12.30;99.90;;;;;;5109378;27;20743;-60
2022/05/25 05:12:28;;;;;;;2.80;1.83;;;12.30;99.90;;;;;;5106464;27;20513;-62
2022/05/25 05:14:54;;;;;;;3.27;2.20;;;12.30;99.90;;;;;;5110095;28;21132;-61
2022/05/25 05:17:20;;;;;;;2.47;2.20;;;12.40;99.90;;;;;;5111423;28;20456;-62
2022/05/25 05:19:46;;;;;;;2.97;2.40;;;12.40;99.90;;;;;;5114557;27;20946;-60
2022/05/25 05:22:11;;;;;;;2.00;1.90;;;12.50;99.90;;;;;;5103762;27;20189;-60
2022/05/25 05:24:37;;;;;;;2.30;2.10;;;12.50;99.90;;;;;;5106825;28;20196;-62
2022/05/25 05:27:04;;;;;;;3.60;2.57;;;12.50;99.90;;;;;;5102199;28;20185;-63
2022/05/25 05:29:30;;;;;;;2.80;2.50;;;12.50;99.90;;;;;;5114024;27;20172;-62
2022/05/25 05:31:58;;;;;;;6.70;2.20;;;12.60;99.90;;;;;;5110620;28;20442;-62
2022/05/25 05:34:27;;;;;;;2.60;1.90;;;12.70;99.90;;;;;;5106695;27;20545;-62
2022/05/25 05:37:04;;;;;;;4.33;2.20;;;12.70;99.90;;;;;;5125954;27;20942;-62
2022/05/25 05:39:34;;;;;;;4.43;2.23;;;12.70;99.90;;;;;;5110068;28;20423;-62
2022/05/25 05:42:03;;;;;;;4.40;2.47;;;12.80;99.90;;;;;;5112617;27;20416;-61
2022/05/25 05:44:35;;;;;;;2.13;2.03;;;12.80;99.90;;;;;;5107311;28;20449;-61
2022/05/25 05:47:04;;;;;;;2.63;1.90;;;12.80;99.90;;;;;;5118649;27;20947;-61
2022/05/25 05:49:30;;;;;;;2.47;2.27;;;12.80;99.90;;;;;;5106233;28;20423;-61
2022/05/25 05:51:56;;;;;;;2.50;2.00;;;12.80;99.90;;;;;;5110085;27;20508;-61
2022/05/25 05:54:22;;;;;;;2.13;1.93;;;12.80;99.90;;;;;;5109003;28;21089;-62
2022/05/25 05:56:47;;;;;;;2.97;2.77;;;12.80;99.90;;;;;;5107087;27;20177;-61
2022/05/25 05:59:13;;;;;;;2.53;2.30;;;12.90;99.90;;;;;;5099322;28;20419;-62
2022/05/25 06:01:39;;;;;;;3.07;2.40;;;12.90;99.90;;;;;;5114784;27;20184;-63
2022/05/25 06:04:05;;;;;;;4.00;2.17;;;12.90;99.90;;;;;;5084390;28;20197;-62
2022/05/25 06:06:31;;;;;;;2.07;1.70;;;13.00;99.90;;;;;;5106738;27;20179;-62
2022/05/25 06:08:57;;;;;;;5.37;2.17;;;13.00;99.90;;;;;;5104410;28;20513;-62
2022/05/25 06:11:23;;;;;;;4.60;3.60;;;13.10;99.90;;;;;;5105434;28;20656;-62
2022/05/25 06:13:49;;;;;;;5.17;2.33;;;13.10;99.90;;;;;;5099781;28;21068;-63
2022/05/25 06:21:43;;;;;;;3.33;2.23;;;13.20;99.90;;;;;;5099629;27;20451;-62
2022/05/25 06:24:09;;;;;;;2.20;2.00;;;13.30;99.90;;;;;;5105517;28;20447;-62
2022/05/25 06:26:35;;;;;;;4.40;2.00;;;13.30;99.90;;;;;;5108110;28;20252;-63
2022/05/25 06:29:01;;;;;;;2.40;2.00;;;13.30;99.90;;;;;;5105114;27;20179;-62
2022/05/25 06:31:28;;;;;;;2.40;2.20;;;13.40;99.90;;;;;;5098732;27;20184;-62
2022/05/25 06:33:54;;;;;;;2.23;1.83;;;13.50;99.90;;;;;;5103613;28;20458;-62
2022/05/25 06:36:23;;;;;;;2.20;2.00;;;13.60;99.90;;;;;;5111192;27;20423;-63
2022/05/25 06:38:49;;;;;;;2.70;2.17;;;13.70;99.90;;;;;;5104115;28;20484;-62
2022/05/25 06:41:15;;;;;;;2.67;1.97;;;13.70;99.90;;;;;;5090223;28;20430;-60
2022/05/25 06:43:42;;;;;;;4.93;2.03;;;13.80;99.90;;;;;;5088548;28;20447;-61
2022/05/25 06:46:09;;;;;;;6.57;2.40;;;13.90;97.90;;;;;;5100410;27;20431;-60
2022/05/25 06:48:34;;;;;;;2.10;1.90;;;14.00;96.50;;;;;;5103036;27;20426;-61
2022/05/25 06:51:21;;;;;;;2.40;2.03;;;14.00;95.90;;;;;;5102531;27;20450;-56
2022/05/25 06:53:47;;;;;;;3.30;2.30;;;14.10;95.50;;;;;;5101870;28;20211;-60
2022/05/25 06:56:13;;;;;;;3.87;2.13;;;14.10;94.70;;;;;;5094502;28;20946;-61
2022/05/25 06:58:39;;;;;;;2.40;1.50;;;14.20;91.30;;;;;;5100181;28;20495;-62
2022/05/25 07:01:04;;;;;;;2.17;1.97;;;14.20;87.20;;;;;;5089965;28;20198;-61
2022/05/25 07:03:31;;;;;;;2.10;1.30;;;14.30;87.00;;;;;;5101614;28;20658;-60
2022/05/25 07:05:57;;;;;;;1.90;1.80;;;14.30;86.70;;;;;;5110797;27;20209;-61
2022/05/25 07:08:23;;;;;;;5.33;1.60;;;14.40;85.60;;;;;;5102514;27;20419;-60
2022/05/25 07:10:50;;;;;;;2.10;1.50;;;14.50;79.00;;;;;;5103807;28;20515;-62
2022/05/25 07:13:17;;;;;;;2.47;1.33;;;14.50;77.60;;;;;;5107276;28;20950;-61
2022/05/25 07:15:43;;;;;;;1.57;1.47;;;14.50;75.70;;;;;;5103117;27;20881;-59
2022/05/25 07:18:10;;;;;;;1.27;1.17;;;14.50;69.10;;;;;;5106839;27;20429;-59
2022/05/25 07:20:36;;;;;;;2.60;1.20;;;14.50;65.90;;;;;;5101376;27;20931;-60
2022/05/25 07:23:02;;;;;;;4.60;1.40;;;14.50;65.00;;;;;;5090049;28;20480;-62
2022/05/25 07:25:28;;;;;;;4.00;1.10;;;14.50;65.50;;;;;;5103837;28;20459;-62
2022/05/25 07:27:53;;;;;;;2.40;1.60;;;14.50;63.00;;;;;;5106501;28;20970;-62
2022/05/25 07:30:20;;;;;;;1.10;1.10;;;14.50;62.10;;;;;;5106245;28;20185;-62
2022/05/25 07:32:46;;;;;;;2.70;1.10;;;14.50;62.70;;;;;;5101922;28;20727;-62
2022/05/25 07:35:15;;;;;;;2.57;1.30;;;14.50;62.50;;;;;;5100063;28;21017;-61
2022/05/25 07:37:45;;;;;;;5.57;1.20;;;14.60;62.40;;;;;;5105682;28;20429;-62
2022/05/25 07:40:21;;;;;;;1.40;1.20;;;14.70;62.40;;;;;;5087984;28;20437;-62
2022/05/25 07:42:50;;;;;;;1.40;1.30;;;14.70;62.50;;;;;;5108049;28;20450;-63
2022/05/25 07:45:16;;;;;;;1.60;1.50;;;14.70;63.10;;;;;;5105320;28;20567;-63
2022/05/25 07:47:41;;;;;;;1.70;1.60;;;14.90;63.70;;;;;;5090310;28;21304;-63
2022/05/25 07:50:07;;;;;;;1.30;1.20;;;15.10;63.30;;;;;;5085510;28;20183;-62
2022/05/25 07:52:38;;;;;;;8.33;2.27;;;15.30;62.10;;;;;;5099001;28;20181;-61
2022/05/25 07:55:05;;;;;;;2.20;1.40;;;15.50;61.90;;;;;;5094653;28;20464;-62
2022/05/25 07:57:31;;;;;;;2.50;1.37;;;15.70;60.90;;;;;;5108110;28;21167;-61
2022/05/25 07:59:57;;;;;;;1.30;1.20;;;15.80;60.00;;;;;;5099551;28;20571;-62
2022/05/25 08:08:01;;;;;;;5.43;1.33;;;16.10;58.00;;;;;;5098946;28;20986;-61
2022/05/25 08:10:27;;;;;;;1.80;1.30;;;16.20;58.50;;;;;;5112391;27;20446;-62
2022/05/25 08:12:55;;;;;;;2.37;1.20;;;16.40;58.00;;;;;;5110155;28;20514;-61
2022/05/25 08:15:21;;;;;;;1.50;1.40;;;16.60;58.30;;;;;;5100585;28;20879;-60
2022/05/25 08:17:48;;;;;;;2.10;1.23;;;16.80;57.70;;;;;;5106956;27;20429;-61
2022/05/25 08:20:14;;;;;;;1.33;1.23;;;16.90;57.70;;;;;;5104949;27;20791;-60
2022/05/25 08:22:41;;;;;;;2.23;1.10;;;17.10;57.50;;;;;;5107907;28;20978;-60
2022/05/25 08:25:08;;;;;;;2.80;1.47;;;17.30;57.10;;;;;;5084912;28;20974;-60
2022/05/25 08:27:38;;;;;;;1.10;1.10;;;17.40;56.30;;;;;;5099440;27;20438;-60
2022/05/25 08:30:06;;;;;;;2.60;1.40;;;17.50;56.30;;;;;;5111697;28;20418;-60
2022/05/25 08:32:32;;;;;;;1.37;1.23;;;17.70;55.50;;;;;;5112159;27;20434;-60
2022/05/25 08:34:58;;;;;;;2.13;1.17;;;17.80;55.60;;;;;;5107971;27;20537;-60
2022/05/25 08:37:23;;;;;;;1.90;1.40;;;17.90;54.70;;;;;;5106909;27;20219;-60
2022/05/25 08:39:49;;;;;;;1.40;1.30;;;18.10;55.20;;;;;;5108477;28;20249;-62
2022/05/25 08:42:19;;;;;;;1.50;1.10;;;18.00;53.30;;;;;;5110944;27;20189;-61
2022/05/25 08:44:47;;;;;;;1.50;1.40;;;17.90;54.20;;;;;;5112331;27;20225;-61
2022/05/25 08:47:13;;;;;;;3.23;1.30;;;17.90;55.10;;;;;;5099867;28;20503;-61
2022/05/25 08:49:42;;;;;;;4.03;1.20;;;18.00;55.10;;;;;;5109845;27;20735;-61
2022/05/25 08:52:34;;;;;;;2.53;1.70;;;17.90;54.90;;;;;;5109537;28;20938;-60
2022/05/25 08:55:01;;;;;;;1.50;1.40;;;17.70;52.70;;;;;;5110946;28;20498;-62
2022/05/25 08:57:36;;;;;;;2.10;1.70;;;17.30;52.80;;;;;;5104459;28;20872;-61
2022/05/25 09:00:08;;;;;;;1.60;1.50;;;17.00;54.40;;;;;;5105007;28;20483;-62
2022/05/25 09:02:40;;;;;;;2.40;1.77;;;16.90;55.40;;;;;;5102580;28;20434;-61
2022/05/25 09:05:46;;;;;;;1.97;1.87;;;16.80;56.20;;;;;;5105240;27;20469;-61
2022/05/25 09:08:15;;;;;;;2.53;1.90;;;16.60;56.70;;;;;;5094087;28;20445;-62
2022/05/25 09:10:48;;;;;;;2.83;1.70;;;16.60;57.40;;;;;;5107489;27;20480;-62
2022/05/25 09:13:18;;;;;;;3.10;1.93;;;16.50;57.50;;;;;;5110601;28;20819;-63
2022/05/25 09:18:41;;;;;;;3.70;2.30;;;16.60;57.60;;;;;;5106785;27;20511;-62
2022/05/25 09:21:07;;;;;;;7.90;2.73;;;16.60;57.90;;;;;;5105243;28;20443;-63
2022/05/25 09:23:35;;;;;;;5.60;2.20;;;16.60;57.70;;;;;;5098967;28;20436;-63
2022/05/25 09:26:01;;;;;;;2.50;2.13;;;16.60;58.40;;;;;;5107261;28;20431;-61
2022/05/25 09:28:34;;;;;;;4.20;2.47;;;16.60;58.90;;;;;;5106541;27;20529;-62
2022/05/25 09:31:02;;;;;;;1.93;1.73;;;16.80;59.30;;;;;;5103806;27;20185;-61
2022/05/25 09:33:41;;;;;;;5.70;2.30;;;17.10;59.20;;;;;;5108447;28;20434;-61
2022/05/25 09:36:34;;;;;;;3.37;2.30;;;17.50;59.20;;;;;;5118091;27;20426;-61
2022/05/25 09:39:25;;;;;;;2.20;2.00;;;17.80;58.50;;;;;;5105116;28;20426;-61
2022/05/25 09:41:58;;;;;;;3.03;2.10;;;18.10;58.80;;;;;;5112113;27;20487;-59
2022/05/25 09:44:25;;;;;;;2.13;1.93;;;18.50;58.40;;;;;;5110030;27;20451;-61
2022/05/25 09:46:56;;;;;;;2.67;1.80;;;18.60;56.70;;;;;;5106632;27;20838;-59
2022/05/25 09:49:40;;;;;;;1.80;1.70;;;18.40;55.70;;;;;;5110039;27;20464;-59
2022/05/25 09:52:14;;;;;;;4.50;1.80;;;18.30;55.90;;;;;;5104124;28;20439;-59
2022/05/25 09:54:46;;;;;;;2.20;2.00;;;18.10;55.80;;;;;;5102690;28;20474;-60
2022/05/25 09:57:30;;;;;;;4.20;1.63;;;17.90;55.70;;;;;;5099229;27;20420;-60
2022/05/25 10:00:03;;;;;;;3.03;1.73;;;17.80;56.00;;;;;;5105073;28;20446;-61
2022/05/25 10:02:46;;;;;;;1.93;1.60;;;17.70;55.90;;;;;;5104577;28;20534;-60
2022/05/25 10:05:16;;;;;;;5.43;2.03;;;17.60;56.50;;;;;;5103718;28;20446;-59
2022/05/25 10:08:10;;;;;;;2.63;1.87;;;17.50;56.50;;;;;;5108930;28;20935;-59
2022/05/25 10:10:55;;;;;;;1.93;1.77;;;17.50;57.30;;;;;;5094808;28;20435;-60
2022/05/25 10:13:23;;;;;;;2.13;1.73;;;17.50;57.10;;;;;;5112305;27;20551;-59
2022/05/25 10:15:52;;;;;;;2.50;1.70;;;17.60;57.40;;;;;;5103930;27;20429;-60
2022/05/25 10:18:40;;;;;;;2.20;2.00;;;17.70;56.80;;;;;;5089609;28;20462;-60
2022/05/25 10:21:13;;;;;;;3.53;1.70;;;17.90;57.30;;;;;;5100240;27;20534;-60
2022/05/25 10:23:43;;;;;;;3.70;1.83;;;18.00;57.40;;;;;;5086648;28;20454;-60
2022/05/25 10:26:19;;;;;;;1.90;1.80;;;18.10;56.90;;;;;;5096484;28;20534;-60
2022/05/25 10:28:51;;;;;;;2.13;1.70;;;18.20;56.70;;;;;;5103888;27;20439;-60
2022/05/25 10:37:25;;;;;;;3.03;1.97;;;18.40;55.50;;;;;;5103721;28;20483;-61
2022/05/25 10:39:54;;;;;;;1.73;1.37;;;18.30;55.00;;;;;;5088237;27;20433;-62
2022/05/25 10:42:19;;;;;;;1.87;1.60;;;18.30;55.30;;;;;;5102691;27;20569;-60
2022/05/25 10:45:07;;;;;;;1.60;1.50;;;18.20;53.80;;;;;;5107022;27;20617;-60
2022/05/25 10:47:47;;;;;;;1.47;1.37;;;18.40;54.50;;;;;;5109064;27;20183;-61
2022/05/25 10:50:30;;;;;;;1.50;1.30;;;18.50;55.30;;;;;;5117014;27;20653;-60
2022/05/25 10:53:09;;;;;;;2.77;1.40;;;18.80;55.50;;;;;;5091050;28;20548;-60
2022/05/25 10:55:48;;;;;;;2.80;1.70;;;19.20;53.40;;;;;;5107630;28;20458;-61
2022/05/25 10:58:44;;;;;;;2.40;1.20;;;19.40;53.70;;;;;;5096197;28;20934;-60
2022/05/25 11:01:27;;;;;;;1.70;1.60;;;19.60;54.40;;;;;;5103417;28;20426;-60
2022/05/25 11:03:55;;;;;;;1.60;1.50;;;19.70;53.60;;;;;;5095222;28;20465;-60
2022/05/25 11:06:45;;;;;;;1.50;1.40;;;19.80;53.50;;;;;;5108652;28;20446;-57
2022/05/25 11:09:18;;;;;;;2.40;1.50;;;19.70;53.20;;;;;;5094577;28;20437;-57
2022/05/25 11:12:12;;;;;;;1.60;1.40;;;19.60;52.90;;;;;;5112282;27;20449;-58
2022/05/25 11:14:48;;;;;;;1.83;1.63;;;19.40;52.60;;;;;;5092259;28;20485;-59
2022/05/25 11:17:30;;;;;;;1.80;1.40;;;19.30;52.10;;;;;;5091656;28;20438;-58
2022/05/25 11:20:15;;;;;;;3.37;2.00;;;19.20;52.40;;;;;;5091138;28;20483;-58
2022/05/25 11:23:00;;;;;;;6.03;1.50;;;19.10;52.70;;;;;;5093012;28;20419;-61
2022/05/25 11:25:35;;;;;;;3.27;1.63;;;19.10;52.40;;;;;;5092139;28;20442;-61
2022/05/25 11:28:07;;;;;;;2.90;1.50;;;19.10;53.60;;;;;;5094749;28;20947;-61
2022/05/25 11:31:17;;;;;;;2.10;1.50;;;19.40;52.40;;;;;;5096146;28;20494;-62
2022/05/25 11:33:42;;;;;;;1.60;1.50;;;19.70;53.30;;;;;;5108292;28;20500;-62
2022/05/25 11:36:37;;;;;;;3.20;1.70;;;19.80;53.10;;;;;;5104822;27;20416;-61
2022/05/25 11:39:05;;;;;;;2.30;1.97;;;19.90;52.60;;;;;;5086531;28;20204;-61
2022/05/25 11:42:09;;;;;;;2.00;1.73;;;20.00;53.10;;;;;;5075460;28;20982;-57
2022/05/25 11:44:59;;;;;;;3.07;1.97;;;19.90;52.80;;;;;;5092568;28;20524;-57
2022/05/25 11:47:31;;;;;;;2.50;1.90;;;19.80;53.00;;;;;;5095351;28;20518;-59
2022/05/25 11:50:02;;;;;;;2.80;1.67;;;19.70;53.40;;;;;;5091899;28;20456;-58
2022/05/25 11:52:52;;;;;;;1.70;1.60;;;19.60;53.70;;;;;;5090865;28;20435;-56
2022/05/25 11:55:31;;;;;;;2.30;1.47;;;19.50;52.20;;;;;;5092337;28;20861;-58
2022/05/25 11:58:36;;;;;;;1.90;1.80;;;19.30;52.10;;;;;;5090179;28;20946;-59
2022/05/25 12:01:15;;;;;;;3.67;1.70;;;19.00;51.80;;;;;;5068498;28;20440;-57
2022/05/25 12:04:18;;;;;;;2.47;1.53;;;19.00;52.50;;;;;;5079710;28;20475;-57
2022/05/25 12:06:58;;;;;;;3.03;2.53;;;18.90;52.50;;;;;;5085042;28;20435;-57
2022/05/25 12:09:40;;;;;;;2.73;1.60;;;18.90;52.40;;;;;;5070106;28;20455;-56
2022/05/25 12:12:21;;;;;;;3.43;1.80;;;19.10;53.40;;;;;;5072614;28;20433;-56
2022/05/25 12:15:04;;;;;;;4.63;2.03;;;19.30;53.10;;;;;;5075253;28;20545;-56
2022/05/25 12:17:59;;;;;;;2.43;1.60;;;19.50;52.60;;;;;;5075631;28;20448;-57
2022/05/25 12:20:32;;;;;;;3.03;1.50;;;19.50;51.10;;;;;;5059623;28;20428;-56
2022/05/25 12:23:02;;;;;;;6.17;2.07;;;19.30;51.10;;;;;;5074862;28;20423;-55
2022/05/25 12:25:30;;;;;;;6.30;1.37;;;19.10;51.40;;;;;;5072260;28;20448;-56
2022/05/25 12:27:58;;;;;;;3.23;1.77;;;19.10;51.10;;;;;;5070975;28;20607;-58
2022/05/25 12:30:35;;;;;;;5.90;2.23;;;19.00;50.30;;;;;;5072185;28;20964;-59
2022/05/25 12:33:05;;;;;;;3.13;1.80;;;18.80;51.30;;;;;;5070904;28;20427;-62
2022/05/25 12:35:33;;;;;;;3.20;1.97;;;18.60;52.30;;;;;;5079814;28;20459;-61
2022/05/25 12:37:59;;;;;;;1.73;1.60;;;18.60;52.60;;;;;;5062191;28;20511;-62
2022/05/25 12:40:50;;;;;;;2.23;1.53;;;18.60;53.00;;;;;;5065596;28;20459;-62
2022/05/25 12:43:48;;;;;;;3.37;2.10;;;18.60;53.30;;;;;;5076565;28;21213;-61
2022/05/25 12:49:09;;;;;;;2.60;1.83;;;18.60;52.80;;;;;;5071745;28;20451;-60
2022/05/25 12:51:43;;;;;;;3.27;1.70;;;18.50;52.20;;;;;;5072085;28;20467;-60
2022/05/25 12:54:23;;;;;;;3.30;1.87;;;18.40;52.80;;;;;;5075974;28;20452;-62
2022/05/25 12:56:50;;;;;;;2.37;2.13;;;18.30;53.30;;;;;;5083134;28;20445;-61
2022/05/25 12:59:25;;;;;;;3.00;1.93;;;18.20;53.20;;;;;;5088938;28;20540;-61
2022/05/25 13:02:09;;;;;;;3.53;2.10;;;18.10;53.00;;;;;;5080779;28;20864;-62
2022/05/25 13:05:02;;;;;;;2.50;2.03;;;18.10;53.50;;;;;;5074821;28;21114;-62
2022/05/25 13:07:33;;;;;;;3.90;2.00;;;18.10;54.30;;;;;;5067826;28;20497;-62
2022/05/25 13:09:59;;;;;;;2.00;1.80;;;18.40;53.40;;;;;;5077270;28;20482;-61
2022/05/25 13:12:39;;;;;;;5.20;1.73;;;18.60;53.20;;;;;;5092782;28;20429;-61
2022/05/25 13:15:17;;;;;;;1.63;1.53;;;18.90;53.10;;;;;;5068525;28;20448;-60
2022/05/25 13:17:57;;;;;;;1.70;1.60;;;19.40;52.70;;;;;;5068031;28;20456;-61
2022/05/25 13:20:30;;;;;;;2.17;1.67;;;19.60;52.20;;;;;;5069644;28;20478;-61
2022/05/25 13:22:59;;;;;;;1.80;1.60;;;20.10;52.30;;;;;;5084300;27;20501;-60
2022/05/25 13:25:53;;;;;;;2.67;1.60;;;20.80;51.50;;;;;;5090039;28;20948;-60
2022/05/25 13:28:41;;;;;;;1.57;1.47;;;21.40;48.80;;;;;;5101778;28;20783;-60
2022/05/25 13:31:25;;;;;;;4.87;2.00;;;21.70;48.30;;;;;;5085715;28;20932;-60
2022/05/25 13:33:52;;;;;;;4.80;2.10;;;21.90;47.80;;;;;;5089537;28;20463;-60
2022/05/25 13:36:20;;;;;;;3.60;2.10;;;22.10;47.60;;;;;;5102037;28;20442;-61
2022/05/25 13:38:49;;;;;;;3.33;2.03;;;22.30;47.00;;;;;;5081807;28;20471;-60